Portada
METAR-TAF:

METAR-TAF

Aeroports :

Tateyama, Japó

latitud: 34-59N, longitud: 139-50E, altitud: 3 m

Observació

L'informe es va fer fa 5 hores i 41 minuts, a les 12:08 UTC
Vent 17 kt del Sud-Oest amb ràfegues de 33 kt, variant entre Sud i Oest
Temperatura 18°C
Humitat 88%
Pressió 1004 hPa
Visibilitat: 8000 m
Escasses núvols a una alçada de 500 ft
Cel ennuvolat a una alçada de 1200 ft
Cel ennuvolat a una alçada de 2500 ft

METAR: RJTE 211208Z 22017G33KT 180V260 8000 FEW005 BKN012 BKN025 18/16 Q1004 RMK 2ST005 5CU012 7CU025 A2966

Hora: 02:49 (17:49 UTC)


TAF: manca

Observacions i pronòstics meteorològics de més de 4000 aeroports (METAR i TAF).

Les estacions disponibles són els punts grocs i vermells al mapa.

Posi el ratolí al punt desitjat per veure el nom de l'estació.

Feu clic per veure les observacions i els pronòstics meteorològics.

Per canviar el mapa: feu clic els botons verds amb una creu de color negre per apropar; al botó verd amb un guió per allunyar la imatge; o en les fletxes verdes per a mapes adjacents.


METAR-TAF: